Maki Maru — JD4061 — position and weather

sailwx.info

Track history (hours):
 
Tides and Currents Weather Stations Pressure Air Temp Water Temp Dewpoint Dewpoint Depression Visibility Wind Speed Wind Dir Waves Ship Positions

Maki Maru

Last reported at 2018-Feb-20 23:00 UTC. Time now 2018-Feb-20 23:07 UTC.
Position N 34°39' E 135°19'.

Length 74 m; draft 4.8 m.

Type: Cargo ship. MMSI: 431008166.

Date/timePositionNaut miles runAvg speedWind from/ knotsBaromVisibWave heightAir tempDewpointWater temp
2018-Feb-20 23:00N 34°39' E 135°19'0 0.0
2018-Feb-20 22:30N 34°39' E 135°19'0 0.0
2018-Feb-20 22:00N 34°39' E 135°19'0 0.0
2018-Feb-20 21:30N 34°39' E 135°19'0 0.0
2018-Feb-20 21:00N 34°39' E 135°19'0 0.0
2018-Feb-20 20:30N 34°39' E 135°19'0 0.0
2018-Feb-20 20:00N 34°39' E 135°19'0 0.0
2018-Feb-20 19:30N 34°39' E 135°19'0 0.0
2018-Feb-20 19:00N 34°39' E 135°19'0 0.0
2018-Feb-20 18:30N 34°39' E 135°19'0 0.0
2018-Feb-20 18:00N 34°39' E 135°19'0 0.0
2018-Feb-20 17:30N 34°39' E 135°19'0 0.0
2018-Feb-20 17:00N 34°39' E 135°19'0 0.0
2018-Feb-20 16:30N 34°39' E 135°19'0 0.0
2018-Feb-20 16:00N 34°39' E 135°19'0 0.0
2018-Feb-20 15:30N 34°39' E 135°19'0 0.0
2018-Feb-20 15:00N 34°39' E 135°19'0 0.0
2018-Feb-20 14:30N 34°39' E 135°19'0 0.0
2018-Feb-20 14:00N 34°39' E 135°19'0 0.0
2018-Feb-20 13:30N 34°39' E 135°19'0 0.0
2018-Feb-20 13:00N 34°39' E 135°19'0 0.0
2018-Feb-20 12:30N 34°39' E 135°19'0 0.1
2018-Feb-20 12:00N 34°39' E 135°19'0 0.0
2018-Feb-20 11:30N 34°39' E 135°19'0 0.1
2018-Feb-20 11:00N 34°39' E 135°19'0 0.0
2018-Feb-20 10:30N 34°39' E 135°19'0 0.0
2018-Feb-20 10:00N 34°39' E 135°19'0 0.0
2018-Feb-20 09:30N 34°39' E 135°19'0 0.0
2018-Feb-20 09:00N 34°39' E 135°19'0 0.0
2018-Feb-20 08:30N 34°39' E 135°19'0 0.0
2018-Feb-20 08:00N 34°39' E 135°19'0 0.0
2018-Feb-20 07:30N 34°39' E 135°19'0 0.0
2018-Feb-20 07:00N 34°39' E 135°19'0 0.0
2018-Feb-20 06:30N 34°39' E 135°19'0 0.0
2018-Feb-20 06:00N 34°39' E 135°19'0 0.0
2018-Feb-20 05:30N 34°39' E 135°19'0 0.0
2018-Feb-20 05:00N 34°39' E 135°19'0 0.0
2018-Feb-20 04:30N 34°39' E 135°19'0 0.0
2018-Feb-20 04:00N 34°39' E 135°19'0 0.2
2018-Feb-20 03:27N 34°39' E 135°19'3 7.8
2018-Feb-20 03:01N 34°42' E 135°17'0 0.1
2018-Feb-20 02:30N 34°42' E 135°17'0 0.1
2018-Feb-20 02:00N 34°42' E 135°17'0 0.0
2018-Feb-20 01:30N 34°42' E 135°17'0 0.0
2018-Feb-20 01:00N 34°42' E 135°17'0 0.0
2018-Feb-20 00:30N 34°42' E 135°17'0 0.0
2018-Feb-20 00:00N 34°42' E 135°17'0 0.0
2018-Feb-19 23:30N 34°42' E 135°17'0 0.4
2018-Feb-19 23:01N 34°42' E 135°17'3 6.7
2018-Feb-19 22:31N 34°39' E 135°19'0 0.4
2018-Feb-19 21:58N 34°39' E 135°19'0 0.0
2018-Feb-19 21:25N 34°39' E 135°19'0 0.0
2018-Feb-19 20:58N 34°39' E 135°19'0 0.0
2018-Feb-19 20:28N 34°39' E 135°19'0 0.0
2018-Feb-19 19:58N 34°39' E 135°19'0 0.0
2018-Feb-19 19:28N 34°39' E 135°19'0 0.0
2018-Feb-19 18:58N 34°39' E 135°19'0 0.0
2018-Feb-19 18:28N 34°39' E 135°19'0 0.0
2018-Feb-19 17:58N 34°39' E 135°19'0 0.0
2018-Feb-19 17:28N 34°39' E 135°19'0 0.0
2018-Feb-19 16:58N 34°39' E 135°19'0 0.0
2018-Feb-19 16:28N 34°39' E 135°19'0 0.0
2018-Feb-19 15:58N 34°39' E 135°19'0 0.0
2018-Feb-19 15:28N 34°39' E 135°19'1 1.8
2018-Feb-19 15:00N 34°38' E 135°19'611.1
2018-Feb-19 14:30N 34°34' E 135°14'611.6
2018-Feb-19 14:00N 34°29' E 135°10'612.0
2018-Feb-19 13:30N 34°25' E 135°05'612.0
2018-Feb-19 13:00N 34°20' E 135°01'612.0
2018-Feb-19 12:30N 34°14' E 134°59'611.9
2018-Feb-19 12:00N 34°08' E 134°59'611.8
2018-Feb-19 11:30N 34°02' E 134°60'611.7
2018-Feb-19 11:00N 33°56' E 135°00'193 9.6
2018-Feb-18 14:51N 34°35' E 138°49'5 9.5
2018-Feb-18 14:21N 34°36' E 138°54'4 9.0
2018-Feb-18 13:53N 34°38' E 138°59'410.4
2018-Feb-18 13:30N 34°41' E 139°02'811.2
2018-Feb-18 12:50N 34°46' E 139°08'1510.8
2018-Feb-18 11:27N 34°51' E 139°26'41110.0
2018-Feb-16 18:11N 41°31' E 141°24'211.5
2018-Feb-16 17:59N 41°32' E 141°22'611.6
2018-Feb-16 17:30N 41°37' E 141°17'711.0
2018-Feb-16 16:53N 41°43' E 141°13'410.8
2018-Feb-16 16:29N 41°47' E 141°14'  
2018-Feb-14 02:08N 41°45' E 141°24'710.9
2018-Feb-14 01:27N 41°38' E 141°24'2310.9
2018-Feb-13 23:20N 41°16' E 141°31'611.6
2018-Feb-13 22:51N 41°10' E 141°31'37410.9
2018-Feb-12 12:23N 35°01' E 140°12'511.5
2018-Feb-12 11:58N 34°58' E 140°07'511.4
2018-Feb-12 11:30N 34°55' E 140°02'2111.9
2018-Feb-12 09:42N 34°51' E 139°36'512.8
2018-Feb-12 09:19N 34°51' E 139°30'812.7
2018-Feb-12 08:41N 34°50' E 139°20'213.5
2018-Feb-12 08:30N 34°48' E 139°18'713.5
2018-Feb-12 08:00N 34°44' E 139°11'612.8
2018-Feb-12 07:29N 34°40' E 139°05'712.3
2018-Feb-12 06:57N 34°36' E 138°58'512.2
2018-Feb-12 06:30N 34°34' E 138°52'611.9
2018-Feb-12 05:58N 34°33' E 138°45'611.7
2018-Feb-12 05:28N 34°32' E 138°38'711.7
2018-Feb-12 04:54N 34°32' E 138°30'511.4
2018-Feb-12 04:26N 34°32' E 138°23'511.7
2018-Feb-12 03:58N 34°32' E 138°17'1112.0
2018-Feb-12 03:03N 34°32' E 138°03'3512.1
2018-Feb-12 00:08N 34°32' E 137°20'312.4
2018-Feb-11 23:55N 34°32' E 137°17'2111.9
2018-Feb-11 22:09N 34°38' E 136°53'212.4
2018-Feb-11 22:00N 34°40' E 136°51'612.1
2018-Feb-11 21:30N 34°45' E 136°47'611.9
2018-Feb-11 21:00N 34°50' E 136°46'611.8
2018-Feb-11 20:30N 34°56' E 136°46'3 4.9
2018-Feb-11 19:59N 34°59' E 136°48'0 0.0
2018-Feb-11 19:29N 34°59' E 136°48'0 0.0
2018-Feb-11 18:59N 34°59' E 136°48'0 0.1
2018-Feb-11 18:29N 34°59' E 136°48'0 0.1
2018-Feb-11 17:59N 34°59' E 136°48'0 0.0
2018-Feb-11 17:29N 34°59' E 136°48'0 0.0
2018-Feb-11 16:56N 34°59' E 136°48'0 0.0
2018-Feb-11 16:29N 34°59' E 136°48'0 0.0
2018-Feb-11 15:59N 34°59' E 136°48'0 0.0
2018-Feb-11 15:26N 34°59' E 136°48'0 0.0
2018-Feb-11 14:59N 34°59' E 136°48'0 0.0
2018-Feb-11 14:29N 34°59' E 136°48'0 0.0
2018-Feb-11 13:59N 34°59' E 136°48'0 0.0
2018-Feb-11 13:29N 34°59' E 136°48'0 0.1
2018-Feb-11 12:59N 34°59' E 136°48'0 0.0
2018-Feb-11 12:29N 34°59' E 136°48'0 0.0
2018-Feb-11 11:59N 34°59' E 136°48'0 0.0
2018-Feb-11 11:29N 34°59' E 136°48'0 0.0
2018-Feb-11 10:59N 34°59' E 136°48'0 0.0
2018-Feb-11 10:26N 34°59' E 136°48'0 0.0
2018-Feb-11 09:59N 34°59' E 136°48'0 0.0
2018-Feb-11 09:29N 34°59' E 136°48'0 0.0
2018-Feb-11 08:59N 34°59' E 136°48'0 0.0
2018-Feb-11 08:29N 34°59' E 136°48'0 0.0
2018-Feb-11 07:59N 34°59' E 136°48'0 0.0
2018-Feb-11 07:29N 34°59' E 136°48'0 0.0
2018-Feb-11 06:59N 34°59' E 136°48'0 0.0
2018-Feb-11 06:29N 34°59' E 136°48'0 0.1
2018-Feb-11 05:59N 34°59' E 136°48'0 0.0
2018-Feb-11 05:29N 34°59' E 136°48'0 0.1
2018-Feb-11 04:59N 34°59' E 136°48'0 0.0
2018-Feb-11 04:29N 34°59' E 136°48'0 0.0
2018-Feb-11 03:59N 34°59' E 136°48'0 0.0
2018-Feb-11 03:29N 34°59' E 136°48'0 0.0
2018-Feb-11 02:59N 34°59' E 136°48'0 0.0
2018-Feb-11 02:30N 34°59' E 136°48'3 6.6
2018-Feb-11 02:00N 35°01' E 136°50'  
Track history (hours):
 
Tides and Currents Weather Stations Pressure Air Temp Water Temp Dewpoint Dewpoint Depression Visibility Wind Speed Wind Dir Waves Ship Positions

Maki Maru

Last reported at 2018-Feb-20 23:00 UTC. Time now 2018-Feb-20 23:07 UTC.
Position N 34°39' E 135°19'.

Length 74 m; draft 4.8 m.

Type: Cargo ship. MMSI: 431008166.

Date/timePositionNaut miles runAvg speedWind from/ knotsBaromVisibWave heightAir tempDewpointWater temp
2018-Feb-20 23:00N 34°39' E 135°19'0 0.0
2018-Feb-20 22:30N 34°39' E 135°19'0 0.0
2018-Feb-20 22:00N 34°39' E 135°19'0 0.0
2018-Feb-20 21:30N 34°39' E 135°19'0 0.0
2018-Feb-20 21:00N 34°39' E 135°19'0 0.0
2018-Feb-20 20:30N 34°39' E 135°19'0 0.0
2018-Feb-20 20:00N 34°39' E 135°19'0 0.0
2018-Feb-20 19:30N 34°39' E 135°19'0 0.0
2018-Feb-20 19:00N 34°39' E 135°19'0 0.0
2018-Feb-20 18:30N 34°39' E 135°19'0 0.0
2018-Feb-20 18:00N 34°39' E 135°19'0 0.0
2018-Feb-20 17:30N 34°39' E 135°19'0 0.0
2018-Feb-20 17:00N 34°39' E 135°19'0 0.0
2018-Feb-20 16:30N 34°39' E 135°19'0 0.0
2018-Feb-20 16:00N 34°39' E 135°19'0 0.0
2018-Feb-20 15:30N 34°39' E 135°19'0 0.0
2018-Feb-20 15:00N 34°39' E 135°19'0 0.0
2018-Feb-20 14:30N 34°39' E 135°19'0 0.0
2018-Feb-20 14:00N 34°39' E 135°19'0 0.0
2018-Feb-20 13:30N 34°39' E 135°19'0 0.0
2018-Feb-20 13:00N 34°39' E 135°19'0 0.0
2018-Feb-20 12:30N 34°39' E 135°19'0 0.1
2018-Feb-20 12:00N 34°39' E 135°19'0 0.0
2018-Feb-20 11:30N 34°39' E 135°19'0 0.1
2018-Feb-20 11:00N 34°39' E 135°19'0 0.0
2018-Feb-20 10:30N 34°39' E 135°19'0 0.0
2018-Feb-20 10:00N 34°39' E 135°19'0 0.0
2018-Feb-20 09:30N 34°39' E 135°19'0 0.0
2018-Feb-20 09:00N 34°39' E 135°19'0 0.0
2018-Feb-20 08:30N 34°39' E 135°19'0 0.0
2018-Feb-20 08:00N 34°39' E 135°19'0 0.0
2018-Feb-20 07:30N 34°39' E 135°19'0 0.0
2018-Feb-20 07:00N 34°39' E 135°19'0 0.0
2018-Feb-20 06:30N 34°39' E 135°19'0 0.0
2018-Feb-20 06:00N 34°39' E 135°19'0 0.0
2018-Feb-20 05:30N 34°39' E 135°19'0 0.0
2018-Feb-20 05:00N 34°39' E 135°19'0 0.0
2018-Feb-20 04:30N 34°39' E 135°19'0 0.0
2018-Feb-20 04:00N 34°39' E 135°19'0 0.2
2018-Feb-20 03:27N 34°39' E 135°19'3 7.8
2018-Feb-20 03:01N 34°42' E 135°17'0 0.1
2018-Feb-20 02:30N 34°42' E 135°17'0 0.1
2018-Feb-20 02:00N 34°42' E 135°17'0 0.0
2018-Feb-20 01:30N 34°42' E 135°17'0 0.0
2018-Feb-20 01:00N 34°42' E 135°17'0 0.0
2018-Feb-20 00:30N 34°42' E 135°17'0 0.0
2018-Feb-20 00:00N 34°42' E 135°17'0 0.0
2018-Feb-19 23:30N 34°42' E 135°17'0 0.4
2018-Feb-19 23:01N 34°42' E 135°17'3 6.7
2018-Feb-19 22:31N 34°39' E 135°19'0 0.4
2018-Feb-19 21:58N 34°39' E 135°19'0 0.0
2018-Feb-19 21:25N 34°39' E 135°19'0 0.0
2018-Feb-19 20:58N 34°39' E 135°19'0 0.0
2018-Feb-19 20:28N 34°39' E 135°19'0 0.0
2018-Feb-19 19:58N 34°39' E 135°19'0 0.0
2018-Feb-19 19:28N 34°39' E 135°19'0 0.0
2018-Feb-19 18:58N 34°39' E 135°19'0 0.0
2018-Feb-19 18:28N 34°39' E 135°19'0 0.0
2018-Feb-19 17:58N 34°39' E 135°19'0 0.0
2018-Feb-19 17:28N 34°39' E 135°19'0 0.0
2018-Feb-19 16:58N 34°39' E 135°19'0 0.0
2018-Feb-19 16:28N 34°39' E 135°19'0 0.0
2018-Feb-19 15:58N 34°39' E 135°19'0 0.0
2018-Feb-19 15:28N 34°39' E 135°19'1 1.8
2018-Feb-19 15:00N 34°38' E 135°19'611.1
2018-Feb-19 14:30N 34°34' E 135°14'611.6
2018-Feb-19 14:00N 34°29' E 135°10'612.0
2018-Feb-19 13:30N 34°25' E 135°05'612.0
2018-Feb-19 13:00N 34°20' E 135°01'612.0
2018-Feb-19 12:30N 34°14' E 134°59'611.9
2018-Feb-19 12:00N 34°08' E 134°59'611.8
2018-Feb-19 11:30N 34°02' E 134°60'611.7
2018-Feb-19 11:00N 33°56' E 135°00'193 9.6
2018-Feb-18 14:51N 34°35' E 138°49'5 9.5
2018-Feb-18 14:21N 34°36' E 138°54'4 9.0
2018-Feb-18 13:53N 34°38' E 138°59'410.4
2018-Feb-18 13:30N 34°41' E 139°02'811.2
2018-Feb-18 12:50N 34°46' E 139°08'1510.8
2018-Feb-18 11:27N 34°51' E 139°26'41110.0
2018-Feb-16 18:11N 41°31' E 141°24'211.5
2018-Feb-16 17:59N 41°32' E 141°22'611.6
2018-Feb-16 17:30N 41°37' E 141°17'711.0
2018-Feb-16 16:53N 41°43' E 141°13'410.8
2018-Feb-16 16:29N 41°47' E 141°14'  
2018-Feb-14 02:08N 41°45' E 141°24'710.9
2018-Feb-14 01:27N 41°38' E 141°24'2310.9
2018-Feb-13 23:20N 41°16' E 141°31'611.6
2018-Feb-13 22:51N 41°10' E 141°31'37410.9
2018-Feb-12 12:23N 35°01' E 140°12'511.5
2018-Feb-12 11:58N 34°58' E 140°07'511.4
2018-Feb-12 11:30N 34°55' E 140°02'2111.9
2018-Feb-12 09:42N 34°51' E 139°36'512.8
2018-Feb-12 09:19N 34°51' E 139°30'812.7
2018-Feb-12 08:41N 34°50' E 139°20'213.5
2018-Feb-12 08:30N 34°48' E 139°18'713.5
2018-Feb-12 08:00N 34°44' E 139°11'612.8
2018-Feb-12 07:29N 34°40' E 139°05'712.3
2018-Feb-12 06:57N 34°36' E 138°58'512.2
2018-Feb-12 06:30N 34°34' E 138°52'611.9
2018-Feb-12 05:58N 34°33' E 138°45'611.7
2018-Feb-12 05:28N 34°32' E 138°38'711.7
2018-Feb-12 04:54N 34°32' E 138°30'511.4
2018-Feb-12 04:26N 34°32' E 138°23'511.7
2018-Feb-12 03:58N 34°32' E 138°17'1112.0
2018-Feb-12 03:03N 34°32' E 138°03'3512.1
2018-Feb-12 00:08N 34°32' E 137°20'312.4
2018-Feb-11 23:55N 34°32' E 137°17'2111.9
2018-Feb-11 22:09N 34°38' E 136°53'212.4
2018-Feb-11 22:00N 34°40' E 136°51'612.1
2018-Feb-11 21:30N 34°45' E 136°47'611.9
2018-Feb-11 21:00N 34°50' E 136°46'611.8
2018-Feb-11 20:30N 34°56' E 136°46'3 4.9
2018-Feb-11 19:59N 34°59' E 136°48'0 0.0
2018-Feb-11 19:29N 34°59' E 136°48'0 0.0
2018-Feb-11 18:59N 34°59' E 136°48'0 0.1
2018-Feb-11 18:29N 34°59' E 136°48'0 0.1
2018-Feb-11 17:59N 34°59' E 136°48'0 0.0
2018-Feb-11 17:29N 34°59' E 136°48'0 0.0
2018-Feb-11 16:56N 34°59' E 136°48'0 0.0
2018-Feb-11 16:29N 34°59' E 136°48'0 0.0
2018-Feb-11 15:59N 34°59' E 136°48'0 0.0
2018-Feb-11 15:26N 34°59' E 136°48'0 0.0
2018-Feb-11 14:59N 34°59' E 136°48'0 0.0
2018-Feb-11 14:29N 34°59' E 136°48'0 0.0
2018-Feb-11 13:59N 34°59' E 136°48'0 0.0
2018-Feb-11 13:29N 34°59' E 136°48'0 0.1
2018-Feb-11 12:59N 34°59' E 136°48'0 0.0
2018-Feb-11 12:29N 34°59' E 136°48'0 0.0
2018-Feb-11 11:59N 34°59' E 136°48'0 0.0
2018-Feb-11 11:29N 34°59' E 136°48'0 0.0
2018-Feb-11 10:59N 34°59' E 136°48'0 0.0
2018-Feb-11 10:26N 34°59' E 136°48'0 0.0
2018-Feb-11 09:59N 34°59' E 136°48'0 0.0
2018-Feb-11 09:29N 34°59' E 136°48'0 0.0
2018-Feb-11 08:59N 34°59' E 136°48'0 0.0
2018-Feb-11 08:29N 34°59' E 136°48'0 0.0
2018-Feb-11 07:59N 34°59' E 136°48'0 0.0
2018-Feb-11 07:29N 34°59' E 136°48'0 0.0
2018-Feb-11 06:59N 34°59' E 136°48'0 0.0
2018-Feb-11 06:29N 34°59' E 136°48'0 0.1
2018-Feb-11 05:59N 34°59' E 136°48'0 0.0
2018-Feb-11 05:29N 34°59' E 136°48'0 0.1
2018-Feb-11 04:59N 34°59' E 136°48'0 0.0
2018-Feb-11 04:29N 34°59' E 136°48'0 0.0
2018-Feb-11 03:59N 34°59' E 136°48'0 0.0
2018-Feb-11 03:29N 34°59' E 136°48'0 0.0
2018-Feb-11 02:59N 34°59' E 136°48'0 0.0
2018-Feb-11 02:30N 34°59' E 136°48'3 6.6
2018-Feb-11 02:00N 35°01' E 136°50'  

Dump ship's entire track history